createdAt,value
2022-09-07T00:00:55.778Z,57.2770
2022-09-07T00:01:57.994Z,57.2900
2022-09-07T00:03:00.394Z,57.2640
2022-09-07T00:06:42.154Z,57.8260
2022-09-07T00:07:44.287Z,57.8200
2022-09-07T00:08:46.470Z,57.8290
2022-09-07T00:09:48.640Z,57.8260
2022-09-07T00:10:50.814Z,57.8350
2022-09-07T00:11:53.047Z,57.8390
2022-09-07T00:12:55.259Z,57.8540
2022-09-07T00:13:55.346Z,57.9030
2022-09-07T00:14:57.532Z,57.9100
2022-09-07T00:15:59.758Z,57.9500
2022-09-07T00:17:01.937Z,57.9860
2022-09-07T00:18:04.100Z,57.9500
2022-09-07T00:19:06.231Z,57.9030
2022-09-07T00:20:08.376Z,57.9100
2022-09-07T00:21:10.558Z,57.8480
2022-09-07T00:22:12.798Z,57.8350
2022-09-07T00:23:14.991Z,57.8710
2022-09-07T00:24:17.209Z,57.8700
2022-09-07T00:25:19.416Z,57.8770
2022-09-07T00:26:21.571Z,57.8960
2022-09-07T00:27:23.785Z,57.8960
2022-09-07T00:28:26.064Z,57.8520
2022-09-07T00:29:28.159Z,57.8650
2022-09-07T00:30:30.351Z,57.8370
2022-09-07T00:31:32.592Z,57.8240
2022-09-07T00:32:34.753Z,57.8050
2022-09-07T00:33:36.954Z,57.7810
2022-09-07T00:34:39.168Z,57.8180
2022-09-07T00:35:41.376Z,57.8430
2022-09-07T00:36:43.592Z,57.8360
2022-09-07T00:37:45.842Z,57.8040
2022-09-07T00:38:48.069Z,57.8460
2022-09-07T00:39:50.374Z,57.8720
2022-09-07T00:40:52.648Z,57.9150
2022-09-07T00:41:54.924Z,57.9080
2022-09-07T00:42:55.072Z,57.9510
2022-09-07T00:43:57.318Z,57.9150
2022-09-07T00:44:59.586Z,57.8480
2022-09-07T00:46:01.993Z,57.8400
2022-09-07T00:47:02.020Z,57.8350
2022-09-07T00:48:04.215Z,57.8760
2022-09-07T00:49:06.427Z,57.8710
2022-09-07T00:50:08.693Z,57.8420
2022-09-07T00:51:10.962Z,57.8190
2022-09-07T00:52:13.196Z,57.7860
2022-09-07T00:53:15.433Z,57.7670
2022-09-07T00:54:17.599Z,57.7570
2022-09-07T00:55:19.821Z,57.7180
2022-09-07T00:56:22.013Z,57.6900
2022-09-07T00:57:24.280Z,57.6790
2022-09-07T00:58:26.705Z,57.7390
2022-09-07T00:59:28.855Z,57.8110
2022-09-07T01:00:31.114Z,57.8180
2022-09-07T01:01:33.511Z,57.7670
2022-09-07T01:02:35.731Z,57.7010
2022-09-07T01:03:35.685Z,57.6370
2022-09-07T01:04:37.930Z,57.6110
2022-09-07T01:05:40.116Z,57.5390
2022-09-07T01:06:42.298Z,57.5510
2022-09-07T01:07:44.485Z,57.5320
2022-09-07T01:08:46.708Z,57.4940
2022-09-07T01:09:48.875Z,57.4730
2022-09-07T01:10:51.052Z,57.4880
2022-09-07T01:11:53.264Z,57.4600
2022-09-07T01:12:55.493Z,57.4180
2022-09-07T01:13:55.598Z,57.4270
2022-09-07T01:14:57.839Z,57.3810
2022-09-07T01:16:00.176Z,57.3460
2022-09-07T01:17:02.368Z,57.3540
2022-09-07T01:18:02.500Z,57.3140
2022-09-07T01:19:04.780Z,57.3260
2022-09-07T01:20:07.022Z,57.2880
2022-09-07T01:21:09.259Z,57.3820
2022-09-07T01:22:11.515Z,57.3850
2022-09-07T01:23:13.771Z,57.4360
2022-09-07T01:24:16.061Z,57.4220
2022-09-07T01:25:18.316Z,57.4240
2022-09-07T01:26:18.411Z,57.3690
2022-09-07T01:27:20.678Z,57.3510
2022-09-07T01:28:22.926Z,57.3620
2022-09-07T01:29:25.213Z,57.3450
2022-09-07T01:30:27.461Z,57.3320
2022-09-07T01:31:29.786Z,57.3680
2022-09-07T01:32:31.945Z,57.3860
2022-09-07T01:33:34.146Z,57.3860
2022-09-07T01:34:36.384Z,57.3930
2022-09-07T01:35:38.570Z,57.3140
2022-09-07T01:36:40.827Z,57.3400
2022-09-07T01:37:43.066Z,57.3650
2022-09-07T01:38:45.291Z,57.3030
2022-09-07T01:39:47.677Z,57.2220
2022-09-07T01:40:49.801Z,57.2830
2022-09-07T01:41:52.019Z,57.2580
2022-09-07T01:42:54.201Z,57.2090
2022-09-07T01:43:56.375Z,57.1390
2022-09-07T01:44:58.631Z,57.1490
2022-09-07T01:46:00.869Z,57.1200
2022-09-07T01:47:03.040Z,57.1010
2022-09-07T01:48:03.132Z,57.1020
2022-09-07T01:49:05.348Z,57.1490
2022-09-07T01:50:07.613Z,57.0830
2022-09-07T01:51:09.833Z,57.0910
2022-09-07T01:52:12.075Z,57.0910
2022-09-07T01:53:14.320Z,57.1000
2022-09-07T01:54:16.585Z,57.1000
2022-09-07T01:55:18.843Z,57.0910
2022-09-07T01:56:21.030Z,57.0910
2022-09-07T01:57:23.225Z,57.1220
2022-09-07T01:58:25.550Z,57.1590
2022-09-07T01:59:27.633Z,57.1660
2022-09-07T02:03:18.237Z,57.1720
2022-09-07T02:04:20.423Z,57.1400
2022-09-07T02:05:22.645Z,57.0970
2022-09-07T02:06:24.890Z,57.1270
2022-09-07T02:07:27.141Z,57.1120
2022-09-07T02:08:29.461Z,57.1060
2022-09-07T02:09:31.644Z,57.0680
2022-09-07T02:10:33.878Z,57.0870
2022-09-07T02:11:36.104Z,57.0120
2022-09-07T02:12:38.363Z,57.0340
2022-09-07T02:13:40.622Z,56.9930
2022-09-07T02:14:42.856Z,57.0340
2022-09-07T02:15:45.173Z,57.0120
2022-09-07T02:16:45.207Z,57.0060
2022-09-07T02:17:47.412Z,56.9740
2022-09-07T02:18:49.672Z,56.9460
2022-09-07T02:19:51.843Z,57.0000
2022-09-07T02:20:54.056Z,56.9440
2022-09-07T02:21:56.268Z,56.9460
2022-09-07T02:22:58.460Z,56.9700
2022-09-07T02:24:00.679Z,56.9010
2022-09-07T02:25:02.874Z,56.9330
2022-09-07T02:26:05.073Z,56.9010
2022-09-07T02:27:05.146Z,56.8820
2022-09-07T02:28:07.360Z,56.8880
2022-09-07T02:29:09.580Z,56.8480
2022-09-07T02:30:11.786Z,56.9090
2022-09-07T02:31:14.013Z,56.9350
2022-09-07T02:32:14.049Z,57.0090
2022-09-07T02:33:16.262Z,56.9880
2022-09-07T02:34:18.538Z,56.9270
2022-09-07T02:35:20.753Z,56.8670
2022-09-07T02:36:22.977Z,56.8350
2022-09-07T02:37:25.212Z,56.8700
2022-09-07T02:38:27.487Z,56.8420
2022-09-07T02:39:29.709Z,56.8220
2022-09-07T02:40:31.830Z,56.8950
2022-09-07T02:41:34.025Z,56.8420
2022-09-07T02:42:36.237Z,56.8650
2022-09-07T02:43:38.441Z,56.9010
2022-09-07T02:44:40.662Z,56.8850
2022-09-07T02:45:42.838Z,56.8910
2022-09-07T02:46:45.198Z,56.8400
2022-09-07T02:47:47.262Z,56.8060
2022-09-07T02:48:49.461Z,56.8060
2022-09-07T02:49:51.661Z,56.8100
2022-09-07T02:50:53.841Z,56.8890
2022-09-07T02:51:56.005Z,56.8160
2022-09-07T02:52:58.190Z,56.8220
2022-09-07T02:54:00.381Z,56.8690
2022-09-07T02:55:02.617Z,56.9010
2022-09-07T02:56:04.743Z,56.9050
2022-09-07T02:57:06.921Z,57.0190
2022-09-07T02:58:09.054Z,56.9910
2022-09-07T02:59:11.245Z,56.9460
2022-09-07T03:00:13.487Z,57.0210
2022-09-07T03:01:15.670Z,57.0930
2022-09-07T03:02:15.720Z,56.9910
2022-09-07T03:03:17.796Z,57.0210
2022-09-07T03:04:19.993Z,57.0070
2022-09-07T03:05:22.219Z,56.9370
2022-09-07T03:06:24.381Z,56.9710
2022-09-07T03:07:26.593Z,56.8880
2022-09-07T03:08:28.926Z,56.8620
2022-09-07T03:09:31.061Z,56.9110
2022-09-07T03:10:33.333Z,56.9580
2022-09-07T03:11:35.523Z,56.9520
2022-09-07T03:12:37.740Z,56.9580
2022-09-07T03:13:39.949Z,56.9090
2022-09-07T03:14:42.181Z,56.8480
2022-09-07T03:15:44.480Z,56.8570
2022-09-07T03:16:44.500Z,56.8160
2022-09-07T03:17:46.710Z,56.8150
2022-09-07T03:18:48.898Z,56.8690
2022-09-07T03:19:51.066Z,56.8690
2022-09-07T03:20:53.282Z,56.9110
2022-09-07T03:21:55.394Z,56.8820
2022-09-07T03:22:57.559Z,56.8500
2022-09-07T03:23:59.710Z,56.8310
2022-09-07T03:25:01.849Z,56.8690
2022-09-07T03:26:04.031Z,56.8310
2022-09-07T03:27:06.164Z,56.8760
2022-09-07T03:28:08.297Z,56.9720
2022-09-07T03:29:10.384Z,56.9720
2022-09-07T03:30:12.469Z,56.9660
2022-09-07T03:31:14.677Z,56.9300
2022-09-07T03:32:16.722Z,56.9130
2022-09-07T03:33:18.849Z,56.9050
2022-09-07T03:34:20.942Z,56.8750
2022-09-07T03:35:23.039Z,56.8760
2022-09-07T03:36:25.146Z,56.7950
2022-09-07T03:37:27.224Z,56.7500
2022-09-07T03:38:29.394Z,56.7630
2022-09-07T03:39:31.586Z,56.8150
2022-09-07T03:40:33.631Z,56.7840
2022-09-07T03:41:35.801Z,56.8560
2022-09-07T03:42:37.930Z,56.8280
2022-09-07T03:43:40.068Z,56.7840
2022-09-07T03:44:42.189Z,56.8130
2022-09-07T03:45:44.365Z,56.9340
2022-09-07T03:46:46.493Z,56.9210
2022-09-07T03:47:48.635Z,56.8790
2022-09-07T03:48:50.829Z,56.8390
2022-09-07T03:49:52.966Z,56.8450
2022-09-07T03:50:55.140Z,56.7960
2022-09-07T03:51:57.384Z,56.7710
2022-09-07T03:52:59.558Z,56.8130
2022-09-07T03:54:01.770Z,56.7640
2022-09-07T03:55:03.948Z,56.7600
2022-09-07T03:56:03.997Z,56.7790
2022-09-07T03:57:06.201Z,56.7720
2022-09-07T03:58:08.378Z,56.7240
2022-09-07T03:59:10.582Z,56.7300
2022-09-07T04:00:12.791Z,56.7490
2022-09-07T04:01:01.754Z,56.7600
2022-09-07T04:02:02.370Z,56.4970
2022-09-07T04:03:04.563Z,56.3810
2022-09-07T04:04:06.747Z,56.3160
2022-09-07T04:05:11.076Z,56.1220
2022-09-07T04:06:06.837Z,56.1150
2022-09-07T04:07:09.046Z,56.0180
2022-09-07T04:08:09.199Z,56.0680
2022-09-07T04:09:11.422Z,56.1720
2022-09-07T04:10:11.496Z,56.1150
2022-09-07T04:11:13.709Z,56.0500
2022-09-07T04:12:15.918Z,56.0710
2022-09-07T04:13:18.193Z,56.1340
2022-09-07T04:14:20.392Z,56.1550
2022-09-07T04:15:22.616Z,56.1680
2022-09-07T04:16:24.866Z,56.2670
2022-09-07T04:17:27.084Z,56.2670
2022-09-07T04:18:29.369Z,56.2230
2022-09-07T04:19:31.526Z,56.2700
2022-09-07T04:20:33.768Z,56.2100
2022-09-07T04:21:36.004Z,56.1930
2022-09-07T04:22:36.048Z,56.2130
2022-09-07T04:23:38.270Z,56.2130
2022-09-07T04:24:40.432Z,56.2130
2022-09-07T04:25:42.630Z,56.2060
2022-09-07T04:26:46.791Z,56.2130
2022-09-07T04:27:48.876Z,56.2590
2022-09-07T04:28:51.001Z,56.2530
2022-09-07T04:29:53.036Z,56.2190
2022-09-07T04:30:55.240Z,56.1810
2022-09-07T04:31:57.252Z,56.2060
2022-09-07T04:32:59.332Z,56.3160
2022-09-07T04:34:01.453Z,56.2820
2022-09-07T04:35:03.495Z,56.2400
2022-09-07T04:36:03.446Z,56.2530
2022-09-07T04:37:05.528Z,56.2190
2022-09-07T04:38:07.704Z,56.2400
2022-09-07T04:39:07.776Z,56.2660
2022-09-07T04:40:09.968Z,56.2790
2022-09-07T04:41:12.091Z,56.3060
2022-09-07T04:42:13.205Z,56.3840
2022-09-07T04:42:37.923Z,56.4790
2022-09-07T04:43:40.107Z,56.4290
2022-09-07T04:44:42.300Z,56.3480
2022-09-07T04:45:44.488Z,56.2720
2022-09-07T04:46:44.506Z,56.2470
2022-09-07T04:47:46.735Z,56.2470
2022-09-07T04:48:48.978Z,56.2070
2022-09-07T04:49:51.254Z,56.2530
2022-09-07T04:50:53.461Z,56.2850
2022-09-07T04:51:55.698Z,56.2790
2022-09-07T04:52:57.942Z,56.2590
2022-09-07T04:54:00.199Z,56.2340
2022-09-07T04:55:02.444Z,56.2410
2022-09-07T04:56:04.636Z,56.2220
2022-09-07T04:57:06.888Z,56.2220
2022-09-07T04:58:06.979Z,56.2410
2022-09-07T04:59:09.231Z,56.3040
2022-09-07T05:00:11.520Z,56.5140
2022-09-07T05:01:13.899Z,56.9370
2022-09-07T05:02:16.143Z,57.3730
2022-09-07T05:03:18.389Z,57.4420
2022-09-07T05:04:20.652Z,57.7600
2022-09-07T05:05:22.972Z,58.1040
2022-09-07T05:06:23.107Z,58.1170
2022-09-07T05:07:25.408Z,58.3430
2022-09-07T05:08:27.696Z,58.5130
2022-09-07T05:09:29.991Z,58.9250
2022-09-07T05:10:32.329Z,59.2500
2022-09-07T05:11:34.643Z,59.5060
2022-09-07T05:12:34.822Z,59.7640
2022-09-07T05:13:37.155Z,59.8770
2022-09-07T05:14:39.486Z,59.6650
2022-09-07T05:15:41.864Z,59.8480
2022-09-07T05:16:44.207Z,60.0260
2022-09-07T05:17:44.352Z,60.1300
2022-09-07T05:18:46.678Z,60.3570
2022-09-07T05:19:48.948Z,60.1760
2022-09-07T05:20:51.288Z,60.3640
2022-09-07T05:21:53.591Z,60.1660
2022-09-07T05:22:55.886Z,60.0770
2022-09-07T05:23:56.022Z,60.2150
2022-09-07T05:24:58.337Z,60.2900
2022-09-07T05:26:00.634Z,60.1790
2022-09-07T05:27:02.938Z,60.2220
2022-09-07T05:28:05.194Z,59.9600
2022-09-07T05:31:36.280Z,60.4190
2022-09-07T05:34:38.203Z,60.3580
2022-09-07T05:35:40.413Z,60.2030
2022-09-07T05:36:42.688Z,60.0310
2022-09-07T05:37:44.934Z,60.0570
2022-09-07T05:38:47.213Z,59.9170
2022-09-07T05:39:49.558Z,59.7660
2022-09-07T05:40:51.686Z,59.5340
2022-09-07T05:41:53.925Z,59.3780
2022-09-07T05:42:56.103Z,59.2680
2022-09-07T05:45:00.580Z,58.9630
2022-09-07T05:46:00.723Z,58.7610
2022-09-07T05:47:02.932Z,58.6020
2022-09-07T05:48:05.153Z,58.3540
2022-09-07T05:49:07.351Z,58.1890
2022-09-07T05:50:09.520Z,58.0850
2022-09-07T05:51:11.744Z,57.9660
2022-09-07T05:52:13.997Z,57.8040
2022-09-07T05:53:16.244Z,57.6810
2022-09-07T05:54:18.502Z,57.6220
2022-09-07T05:55:29.958Z,57.5510
2022-09-07T05:56:22.959Z,57.4890
2022-09-07T05:57:25.207Z,57.4400
2022-09-07T05:58:25.306Z,57.3150
2022-09-07T05:59:27.461Z,57.2060
2022-09-07T06:00:29.648Z,57.1260
2022-09-07T06:01:31.863Z,57.0430
2022-09-07T06:02:38.993Z,56.9560
2022-09-07T06:03:36.258Z,56.9770
2022-09-07T06:04:40.549Z,56.9650
2022-09-07T06:05:40.600Z,56.7800
2022-09-07T06:06:47.769Z,56.7730
2022-09-07T06:07:45.145Z,56.7480
2022-09-07T06:08:47.315Z,56.7350
2022-09-07T06:10:49.650Z,56.6570
2022-09-07T06:11:51.831Z,56.6270
2022-09-07T06:12:54.096Z,56.6160
2022-09-07T06:13:56.244Z,56.5590
2022-09-07T06:14:58.466Z,56.4700
2022-09-07T06:16:00.664Z,56.5680
2022-09-07T06:17:02.926Z,56.5080
2022-09-07T06:18:05.220Z,56.4940
2022-09-07T06:19:07.404Z,56.4220
2022-09-07T06:20:09.606Z,56.4260
2022-09-07T06:21:11.881Z,56.3750
2022-09-07T06:22:14.107Z,56.3600
2022-09-07T06:23:16.369Z,56.3960
2022-09-07T06:24:16.442Z,56.3350
2022-09-07T06:25:18.710Z,56.2800
2022-09-07T06:26:20.909Z,56.2250
2022-09-07T06:27:23.149Z,56.2730
2022-09-07T06:28:25.421Z,56.0740
2022-09-07T06:29:27.563Z,56.1180
2022-09-07T06:30:29.798Z,56.1220
2022-09-07T06:31:32.130Z,56.1100
2022-09-07T06:32:49.634Z,56.0930
2022-09-07T06:33:36.568Z,56.0870
2022-09-07T06:34:38.716Z,56.0760
2022-09-07T06:35:38.790Z,56.0620
2022-09-07T06:36:40.967Z,55.9870
2022-09-07T06:37:43.133Z,56.1410
2022-09-07T06:37:47.468Z,56.1400
2022-09-07T06:38:49.660Z,56.0100
2022-09-07T06:39:51.951Z,56.0280
2022-09-07T06:43:58.669Z,56.0570
2022-09-07T06:45:00.785Z,55.9430
2022-09-07T06:47:05.287Z,55.9110
2022-09-07T06:48:07.418Z,55.9530
2022-09-07T06:49:09.631Z,56.0100
2022-09-07T06:50:09.694Z,55.9680
2022-09-07T06:51:11.924Z,55.9750
2022-09-07T06:52:14.168Z,55.9540
2022-09-07T06:55:20.824Z,56.0980
2022-09-07T06:56:23.016Z,56.0550
2022-09-07T06:57:25.227Z,56.0260
2022-09-07T06:58:27.458Z,56.0770
2022-09-07T06:59:29.667Z,56.0450
2022-09-07T07:00:31.899Z,56.0320
2022-09-07T07:01:34.126Z,55.9780
2022-09-07T07:02:36.355Z,56.0160
2022-09-07T07:03:36.508Z,56.0500
2022-09-07T07:04:41.194Z,55.9610
2022-09-07T07:05:40.967Z,55.9150
2022-09-07T07:06:43.267Z,55.9080
2022-09-07T07:07:45.496Z,55.9150
2022-09-07T07:08:47.714Z,55.9740
2022-09-07T07:09:49.957Z,55.9870
2022-09-07T07:10:52.113Z,55.9650
2022-09-07T07:11:54.326Z,55.9850
2022-09-07T07:12:56.500Z,55.9640
2022-09-07T07:13:58.707Z,55.9170
2022-09-07T07:15:00.954Z,55.9050
2022-09-07T07:16:01.102Z,55.8930
2022-09-07T07:17:03.279Z,55.8630
2022-09-07T07:18:20.306Z,55.8740
2022-09-07T07:19:07.686Z,55.9390
2022-09-07T07:20:09.869Z,55.9650
2022-09-07T07:21:12.094Z,55.8930
2022-09-07T07:22:42.662Z,55.9520
2022-09-07T07:23:16.623Z,55.9890
2022-09-07T07:24:18.897Z,55.9270
2022-09-07T07:25:21.178Z,55.8800
2022-09-07T07:26:21.261Z,55.9580
2022-09-07T07:27:23.536Z,55.9830
2022-09-07T07:29:28.438Z,56.0020
2022-09-07T07:30:30.385Z,55.9770
2022-09-07T07:31:32.640Z,55.9960
2022-09-07T07:32:34.912Z,56.0060
2022-09-07T07:33:38.196Z,55.9830
2022-09-07T07:34:37.387Z,56.0230
2022-09-07T07:35:39.645Z,56.0300
2022-09-07T07:36:41.905Z,56.0420
2022-09-07T07:37:44.187Z,55.9900
2022-09-07T07:39:02.503Z,55.9650
2022-09-07T07:41:53.720Z,55.9300
2022-09-07T07:42:55.388Z,55.9480
2022-09-07T07:43:55.410Z,55.9480
2022-09-07T07:46:02.499Z,55.9820
2022-09-07T07:47:02.237Z,55.9820
2022-09-07T07:48:04.461Z,55.9510
2022-09-07T07:49:06.728Z,55.9090
2022-09-07T07:51:12.095Z,55.9400
2022-09-07T07:54:17.776Z,55.9170
2022-09-07T07:55:49.276Z,55.8980
2022-09-07T07:56:22.263Z,55.9050
2022-09-07T07:57:24.457Z,55.9170
2022-09-07T07:58:26.702Z,55.9110
2022-09-07T07:59:28.984Z,55.8970
2022-09-07T08:00:50.774Z,55.8990
2022-09-07T08:01:31.383Z,55.9320
2022-09-07T08:02:33.490Z,55.9240
2022-09-07T08:03:35.633Z,55.9270
2022-09-07T08:04:35.765Z,55.8840
2022-09-07T08:05:37.996Z,55.8860
2022-09-07T08:06:40.248Z,55.9750
2022-09-07T08:07:42.451Z,55.9240
2022-09-07T08:08:44.672Z,55.9450
2022-09-07T08:09:46.905Z,55.8980
2022-09-07T08:10:49.143Z,55.9210
2022-09-07T08:11:51.424Z,55.9450
2022-09-07T08:12:53.640Z,55.9810
2022-09-07T08:13:55.894Z,55.9640
2022-09-07T08:14:56.005Z,55.9510
2022-09-07T08:15:58.287Z,55.9330
2022-09-07T08:17:00.509Z,55.8360
2022-09-07T08:18:02.745Z,55.8650
2022-09-07T08:19:04.994Z,55.8630
2022-09-07T08:20:07.289Z,55.7580
2022-09-07T08:21:09.554Z,55.7260
2022-09-07T08:22:11.837Z,55.7470
2022-09-07T08:23:14.136Z,55.7680
2022-09-07T08:24:14.277Z,55.7680
2022-09-07T08:25:16.599Z,55.7870
2022-09-07T08:26:18.876Z,55.7870
2022-09-07T08:27:21.179Z,55.7870
2022-09-07T08:28:23.513Z,55.7570
2022-09-07T08:29:23.631Z,55.7440
2022-09-07T08:30:25.958Z,55.7230
2022-09-07T08:31:28.248Z,55.6720
2022-09-07T08:32:30.478Z,55.7380
2022-09-07T08:33:32.977Z,55.7440
2022-09-07T08:34:35.035Z,55.7440
2022-09-07T08:35:37.323Z,55.7040
2022-09-07T08:36:39.524Z,55.7040
2022-09-07T08:37:39.666Z,55.7520
2022-09-07T08:38:41.873Z,55.7820
2022-09-07T08:39:44.177Z,55.7920
2022-09-07T08:40:46.341Z,55.7860
2022-09-07T08:41:48.546Z,55.8240
2022-09-07T08:42:50.732Z,55.8300
2022-09-07T08:43:52.907Z,55.7310
2022-09-07T08:44:55.096Z,55.7040
2022-09-07T08:45:57.298Z,55.6910
2022-09-07T08:46:59.490Z,55.6600
2022-09-07T08:48:01.666Z,55.5960
2022-09-07T08:49:03.841Z,55.6030
2022-09-07T08:50:06.026Z,55.6710
2022-09-07T08:51:08.215Z,55.7070
2022-09-07T08:52:10.389Z,55.6450
2022-09-07T08:53:12.462Z,55.6290
2022-09-07T08:54:14.593Z,55.5890
2022-09-07T08:55:16.799Z,55.5220
2022-09-07T08:56:16.846Z,55.5370
2022-09-07T08:57:22.094Z,55.5050
2022-09-07T08:58:45.338Z,55.5730
2022-09-07T08:59:23.463Z,55.4790
2022-09-07T09:00:25.648Z,55.3840
2022-09-07T09:01:31.312Z,55.3000
2022-09-07T09:02:28.896Z,55.2930
2022-09-07T09:03:30.812Z,55.2850
2022-09-07T09:04:33.226Z,55.2470
2022-09-07T09:05:34.521Z,55.3140
2022-09-07T09:06:36.699Z,55.2470
2022-09-07T09:07:38.724Z,55.1980
2022-09-07T09:08:40.971Z,55.2430
2022-09-07T09:09:43.187Z,55.2700
2022-09-07T09:10:45.357Z,55.3300
2022-09-07T09:11:47.580Z,55.2700
2022-09-07T09:12:49.778Z,55.2510
2022-09-07T09:13:52.038Z,55.1920
2022-09-07T09:14:54.197Z,55.2010
2022-09-07T09:15:54.387Z,55.1440
2022-09-07T09:16:56.498Z,55.3530
2022-09-07T09:17:58.665Z,55.2900
2022-09-07T09:19:00.875Z,55.4470
2022-09-07T09:20:03.022Z,55.5120
2022-09-07T09:21:05.177Z,55.5840
2022-09-07T09:22:07.366Z,55.3990
2022-09-07T09:23:09.497Z,55.3510
2022-09-07T09:24:11.659Z,55.3490
2022-09-07T09:25:13.811Z,55.3080
2022-09-07T09:26:15.981Z,55.4860
2022-09-07T09:27:18.145Z,55.4330
2022-09-07T09:28:20.305Z,55.3610
2022-09-07T09:29:22.518Z,55.3360
2022-09-07T09:30:24.678Z,55.3870
2022-09-07T09:31:26.942Z,55.3130
2022-09-07T09:32:29.116Z,55.5160
2022-09-07T09:33:31.356Z,55.4990
2022-09-07T09:34:35.215Z,55.3600
2022-09-07T09:35:35.773Z,55.3790
2022-09-07T09:36:38.017Z,55.4620
2022-09-07T09:37:38.122Z,55.4250
2022-09-07T09:38:40.319Z,55.3790
2022-09-07T09:39:42.660Z,55.3610
2022-09-07T09:40:44.852Z,55.4020
2022-09-07T09:41:47.078Z,55.3320
2022-09-07T09:42:49.335Z,55.4270
2022-09-07T09:43:51.588Z,55.4760
2022-09-07T09:44:53.905Z,55.4220
2022-09-07T09:47:58.492Z,55.3180
2022-09-07T09:49:00.684Z,55.1680
2022-09-07T09:50:02.971Z,55.2720
2022-09-07T09:53:09.625Z,55.3020
2022-09-07T09:54:11.834Z,55.3020
2022-09-07T09:56:16.216Z,55.3390
2022-09-07T09:57:18.376Z,55.2880
2022-09-07T10:00:29.282Z,55.3740
2022-09-07T10:01:26.938Z,55.3950
2022-09-07T10:04:31.522Z,55.3800
2022-09-07T10:05:33.718Z,55.4380
2022-09-07T10:06:35.901Z,55.3260
2022-09-07T10:07:38.153Z,55.3460
2022-09-07T10:08:40.420Z,55.2210
2022-09-07T10:09:42.714Z,55.3270
2022-09-07T10:10:43.827Z,55.3120
2022-09-07T10:12:45.204Z,55.2600
2022-09-07T10:13:47.389Z,55.1240
2022-09-07T10:14:49.674Z,55.1680
2022-09-07T10:15:52.034Z,55.1550
2022-09-07T10:16:54.205Z,55.2400
2022-09-07T10:17:56.471Z,55.2270
2022-09-07T10:18:58.710Z,55.1680
2022-09-07T10:20:00.981Z,55.1550
2022-09-07T10:21:03.232Z,55.1620
2022-09-07T10:22:03.340Z,54.9800
2022-09-07T10:23:05.550Z,54.9800
2022-09-07T10:24:07.807Z,54.9390
2022-09-07T10:25:10.028Z,54.8780
2022-09-07T10:26:12.329Z,54.8510
2022-09-07T10:27:14.540Z,54.8210
2022-09-07T10:28:16.801Z,54.8460
2022-09-07T10:29:19.074Z,54.9260
2022-09-07T10:30:21.315Z,54.9770
2022-09-07T10:31:23.557Z,54.8140
2022-09-07T10:32:23.595Z,54.7490
2022-09-07T10:33:25.806Z,54.8930
2022-09-07T10:34:28.011Z,54.9580
2022-09-07T10:35:30.185Z,54.9710
2022-09-07T10:36:32.458Z,54.9860
2022-09-07T10:37:34.682Z,55.0230
2022-09-07T10:38:36.919Z,55.0550
2022-09-07T10:39:39.245Z,55.0610
2022-09-07T10:40:41.375Z,55.0230
2022-09-07T10:41:43.586Z,55.0760
2022-09-07T10:43:20.770Z,55.0890
2022-09-07T10:43:45.801Z,55.1310
2022-09-07T10:44:48.054Z,55.1050
2022-09-07T10:45:50.297Z,55.0950
2022-09-07T10:46:59.890Z,55.0610
2022-09-07T10:47:52.635Z,55.0100
2022-09-07T10:48:54.863Z,55.0360
2022-09-07T10:50:57.206Z,55.1000
2022-09-07T10:51:59.477Z,55.0280
2022-09-07T10:53:13.415Z,55.0410
2022-09-07T10:54:31.768Z,55.0790
2022-09-07T10:55:03.940Z,55.0890
2022-09-07T10:56:06.126Z,55.0220
2022-09-07T10:57:08.338Z,55.0310
2022-09-07T10:58:10.549Z,55.0450
2022-09-07T10:59:12.664Z,55.0180
2022-09-07T11:00:14.870Z,55.0040
2022-09-07T11:01:17.128Z,55.0040
2022-09-07T11:02:19.400Z,55.0170
2022-09-07T11:03:25.283Z,55.0090
2022-09-07T11:04:23.785Z,55.0440
2022-09-07T11:05:31.075Z,55.0020
2022-09-07T11:06:26.132Z,55.0570
2022-09-07T11:07:28.419Z,55.0680
2022-09-07T11:08:31.077Z,55.0800
2022-09-07T11:09:32.863Z,55.0260
2022-09-07T11:10:35.123Z,55.0090
2022-09-07T11:12:39.496Z,54.9370
2022-09-07T11:14:02.139Z,54.8590
2022-09-07T11:14:43.899Z,54.9180
2022-09-07T11:15:46.123Z,54.9120
2022-09-07T11:16:51.745Z,54.8760
2022-09-07T11:17:52.969Z,54.8360
2022-09-07T11:18:52.972Z,54.8360
2022-09-07T11:19:54.847Z,54.5730
2022-09-07T11:20:57.062Z,54.4970
2022-09-07T11:21:59.220Z,54.6070
2022-09-07T11:22:59.282Z,54.5800
2022-09-07T11:24:01.476Z,54.5730
2022-09-07T11:26:05.936Z,54.6460
2022-09-07T11:27:08.143Z,54.6570
2022-09-07T11:28:10.391Z,54.5860
2022-09-07T11:30:14.869Z,54.5420
2022-09-07T11:31:17.216Z,54.5020
2022-09-07T11:32:19.287Z,54.4690
2022-09-07T11:33:21.535Z,54.3910
2022-09-07T11:34:24.372Z,54.3570
2022-09-07T11:35:23.835Z,54.3990
2022-09-07T11:36:26.111Z,54.3720
2022-09-07T11:37:28.292Z,54.4040
2022-09-07T11:38:30.595Z,54.3780
2022-09-07T11:39:32.768Z,54.3600
2022-09-07T11:40:34.964Z,54.3730
2022-09-07T11:41:37.172Z,54.3750
2022-09-07T11:42:43.358Z,54.3560
2022-09-07T11:43:41.629Z,54.3750
2022-09-07T11:44:43.849Z,54.3500
2022-09-07T11:45:46.070Z,54.3270
2022-09-07T11:46:48.284Z,54.2680
2022-09-07T11:47:50.504Z,54.3670
2022-09-07T11:48:50.594Z,54.3540
2022-09-07T11:49:57.199Z,54.3570
2022-09-07T11:50:55.044Z,54.2950
2022-09-07T11:51:57.267Z,54.3210
2022-09-07T11:52:59.508Z,54.3480
2022-09-07T11:54:01.750Z,54.2730
2022-09-07T11:55:03.933Z,54.3070
2022-09-07T11:56:06.134Z,54.3440
2022-09-07T11:57:08.363Z,54.2980
2022-09-07T11:58:10.586Z,54.2670
2022-09-07T11:59:12.824Z,54.3540
2022-09-07T12:00:15.094Z,54.3670
2022-09-07T12:01:15.131Z,54.4680
2022-09-07T12:02:17.369Z,54.5220
2022-09-07T12:03:22.588Z,54.5900
2022-09-07T12:04:21.782Z,54.6530
2022-09-07T12:05:23.969Z,54.6720
2022-09-07T12:06:26.211Z,54.7080
2022-09-07T12:07:28.458Z,54.7730
2022-09-07T12:08:30.950Z,54.8050
2022-09-07T12:09:33.002Z,54.8710
2022-09-07T12:10:35.227Z,54.9170
2022-09-07T12:11:37.490Z,54.9700
2022-09-07T12:12:37.615Z,55.0350
2022-09-07T12:13:39.857Z,55.0880
2022-09-07T12:14:42.147Z,55.0970
2022-09-07T12:15:44.510Z,55.1670
2022-09-07T12:16:46.649Z,55.2740
2022-09-07T12:17:48.909Z,55.3490
2022-09-07T12:18:51.172Z,55.4680
2022-09-07T12:19:53.394Z,55.5040
2022-09-07T12:20:55.580Z,55.6240
2022-09-07T12:21:55.683Z,55.6350
2022-09-07T12:23:02.191Z,55.7600
2022-09-07T12:24:00.196Z,55.8810
2022-09-07T12:25:02.468Z,55.9300
2022-09-07T12:26:04.701Z,56.0020
2022-09-07T12:27:06.960Z,56.0200
2022-09-07T12:28:09.251Z,56.0980
2022-09-07T12:29:11.487Z,56.1320
2022-09-07T12:30:13.804Z,56.2130
2022-09-07T12:31:13.895Z,56.3090
2022-09-07T12:33:18.413Z,56.4410
2022-09-07T12:34:20.638Z,56.4840
2022-09-07T12:35:22.923Z,56.5070
2022-09-07T12:36:25.190Z,56.5780
2022-09-07T12:37:27.433Z,56.5500
2022-09-07T12:38:29.657Z,56.6040
2022-09-07T12:39:31.869Z,56.5910
2022-09-07T12:40:34.073Z,56.5690
2022-09-07T12:41:34.132Z,56.6290
2022-09-07T12:42:37.249Z,56.6350
2022-09-07T12:43:38.613Z,56.6460
2022-09-07T12:44:40.852Z,56.6590
2022-09-07T12:45:43.168Z,56.6530
2022-09-07T12:46:46.723Z,56.6970
2022-09-07T12:47:49.231Z,56.7510
2022-09-07T12:48:49.924Z,56.8110
2022-09-07T12:49:52.131Z,56.8580
2022-09-07T12:50:52.248Z,56.7850
2022-09-07T12:52:09.234Z,56.8180
2022-09-07T12:52:56.746Z,56.8900
2022-09-07T12:53:59.002Z,56.8840
2022-09-07T12:55:26.058Z,56.9070
2022-09-07T12:56:18.960Z,56.8480
2022-09-07T12:58:08.005Z,56.8900
2022-09-07T12:59:17.518Z,56.8820
2022-09-07T13:00:12.535Z,56.9070
2022-09-07T13:01:12.793Z,56.9540
2022-09-07T13:02:15.047Z,57.0100
2022-09-07T13:04:19.373Z,56.8990
2022-09-07T13:05:21.579Z,56.9030
2022-09-07T13:07:25.990Z,56.9020
2022-09-07T13:08:28.156Z,56.9320
2022-09-07T13:09:30.310Z,56.9370
2022-09-07T13:10:32.515Z,56.9240
2022-09-07T13:11:34.766Z,56.9240
2022-09-07T13:14:09.653Z,56.9660